sensor_id;sensor_type;location;lat;lon;timestamp;temperature;humidity
4374;DHT22;2201;51.100;6.814;2024-03-07T00:01:57;6.30;98.20
4374;DHT22;2201;51.100;6.814;2024-03-07T00:04:23;6.30;98.20
4374;DHT22;2201;51.100;6.814;2024-03-07T00:06:50;6.30;98.20
4374;DHT22;2201;51.100;6.814;2024-03-07T00:09:17;6.30;98.20
4374;DHT22;2201;51.100;6.814;2024-03-07T00:11:44;6.30;98.20
4374;DHT22;2201;51.100;6.814;2024-03-07T00:14:11;6.20;98.20
4374;DHT22;2201;51.100;6.814;2024-03-07T00:16:38;6.20;98.20
4374;DHT22;2201;51.100;6.814;2024-03-07T00:19:07;6.20;98.20
4374;DHT22;2201;51.100;6.814;2024-03-07T00:21:33;6.20;98.20
4374;DHT22;2201;51.100;6.814;2024-03-07T00:24:00;6.20;98.20
4374;DHT22;2201;51.100;6.814;2024-03-07T00:26:27;6.20;98.20
4374;DHT22;2201;51.100;6.814;2024-03-07T00:28:55;6.20;98.20
4374;DHT22;2201;51.100;6.814;2024-03-07T00:31:23;6.10;98.20
4374;DHT22;2201;51.100;6.814;2024-03-07T00:33:50;6.10;98.20
4374;DHT22;2201;51.100;6.814;2024-03-07T00:36:18;6.10;98.20
4374;DHT22;2201;51.100;6.814;2024-03-07T00:38:46;6.10;98.20
4374;DHT22;2201;51.100;6.814;2024-03-07T00:41:13;6.10;98.20
4374;DHT22;2201;51.100;6.814;2024-03-07T00:43:41;6.10;98.20
4374;DHT22;2201;51.100;6.814;2024-03-07T00:46:07;6.10;98.20
4374;DHT22;2201;51.100;6.814;2024-03-07T00:48:36;6.10;98.20
4374;DHT22;2201;51.100;6.814;2024-03-07T00:51:03;6.00;98.20
4374;DHT22;2201;51.100;6.814;2024-03-07T00:53:31;6.00;98.20
4374;DHT22;2201;51.100;6.814;2024-03-07T00:55:58;6.00;98.20
4374;DHT22;2201;51.100;6.814;2024-03-07T00:58:25;6.00;98.20
4374;DHT22;2201;51.100;6.814;2024-03-07T01:00:53;5.90;98.20
4374;DHT22;2201;51.100;6.814;2024-03-07T01:03:20;5.90;98.20
4374;DHT22;2201;51.100;6.814;2024-03-07T01:05:47;5.90;98.20
4374;DHT22;2201;51.100;6.814;2024-03-07T01:08:13;5.90;98.20
4374;DHT22;2201;51.100;6.814;2024-03-07T01:10:42;5.90;98.20
4374;DHT22;2201;51.100;6.814;2024-03-07T01:13:09;5.80;98.20
4374;DHT22;2201;51.100;6.814;2024-03-07T01:15:44;5.80;98.20
4374;DHT22;2201;51.100;6.814;2024-03-07T01:18:11;5.80;98.20
4374;DHT22;2201;51.100;6.814;2024-03-07T01:20:38;5.80;98.20
4374;DHT22;2201;51.100;6.814;2024-03-07T01:23:05;5.70;98.20
4374;DHT22;2201;51.100;6.814;2024-03-07T01:25:33;5.70;98.20
4374;DHT22;2201;51.100;6.814;2024-03-07T01:28:01;5.70;98.20
4374;DHT22;2201;51.100;6.814;2024-03-07T01:30:29;5.70;98.20
4374;DHT22;2201;51.100;6.814;2024-03-07T01:32:56;5.70;98.20
4374;DHT22;2201;51.100;6.814;2024-03-07T01:35:24;5.60;98.20
4374;DHT22;2201;51.100;6.814;2024-03-07T01:37:50;5.60;98.20
4374;DHT22;2201;51.100;6.814;2024-03-07T01:40:17;5.60;98.20
4374;DHT22;2201;51.100;6.814;2024-03-07T01:42:47;5.60;98.20
4374;DHT22;2201;51.100;6.814;2024-03-07T01:45:16;5.60;98.20
4374;DHT22;2201;51.100;6.814;2024-03-07T01:47:44;5.60;98.20
4374;DHT22;2201;51.100;6.814;2024-03-07T01:50:11;5.60;98.20
4374;DHT22;2201;51.100;6.814;2024-03-07T01:52:40;5.60;98.20
4374;DHT22;2201;51.100;6.814;2024-03-07T01:55:09;5.50;98.20
4374;DHT22;2201;51.100;6.814;2024-03-07T01:57:36;5.50;98.20
4374;DHT22;2201;51.100;6.814;2024-03-07T02:00:04;5.50;98.20
4374;DHT22;2201;51.100;6.814;2024-03-07T02:02:33;5.50;98.20
4374;DHT22;2201;51.100;6.814;2024-03-07T02:05:00;5.50;98.20
4374;DHT22;2201;51.100;6.814;2024-03-07T02:07:27;5.50;98.20
4374;DHT22;2201;51.100;6.814;2024-03-07T02:09:59;5.50;98.20
4374;DHT22;2201;51.100;6.814;2024-03-07T02:12:26;5.50;98.20
4374;DHT22;2201;51.100;6.814;2024-03-07T02:14:55;5.50;98.20
4374;DHT22;2201;51.100;6.814;2024-03-07T02:17:23;5.40;98.20
4374;DHT22;2201;51.100;6.814;2024-03-07T02:19:51;5.40;98.20
4374;DHT22;2201;51.100;6.814;2024-03-07T02:22:19;5.40;98.20
4374;DHT22;2201;51.100;6.814;2024-03-07T02:24:47;5.40;98.20
4374;DHT22;2201;51.100;6.814;2024-03-07T02:27:13;5.40;98.20
4374;DHT22;2201;51.100;6.814;2024-03-07T02:29:40;5.30;98.20
4374;DHT22;2201;51.100;6.814;2024-03-07T02:32:07;5.30;98.20
4374;DHT22;2201;51.100;6.814;2024-03-07T02:34:35;5.30;98.20
4374;DHT22;2201;51.100;6.814;2024-03-07T02:37:02;5.30;98.20
4374;DHT22;2201;51.100;6.814;2024-03-07T02:39:30;5.30;98.20
4374;DHT22;2201;51.100;6.814;2024-03-07T02:41:57;5.30;98.20
4374;DHT22;2201;51.100;6.814;2024-03-07T02:44:24;5.20;98.20
4374;DHT22;2201;51.100;6.814;2024-03-07T02:46:50;5.20;98.20
4374;DHT22;2201;51.100;6.814;2024-03-07T02:49:17;5.20;98.20
4374;DHT22;2201;51.100;6.814;2024-03-07T02:51:46;5.20;98.20
4374;DHT22;2201;51.100;6.814;2024-03-07T02:54:13;5.20;98.20
4374;DHT22;2201;51.100;6.814;2024-03-07T02:56:41;5.10;98.20
4374;DHT22;2201;51.100;6.814;2024-03-07T02:59:08;5.10;98.20
4374;DHT22;2201;51.100;6.814;2024-03-07T03:01:35;5.10;98.20
4374;DHT22;2201;51.100;6.814;2024-03-07T03:04:02;5.10;98.20
4374;DHT22;2201;51.100;6.814;2024-03-07T03:06:29;5.00;98.20
4374;DHT22;2201;51.100;6.814;2024-03-07T03:08:57;5.00;98.20
4374;DHT22;2201;51.100;6.814;2024-03-07T03:11:23;5.00;98.20
4374;DHT22;2201;51.100;6.814;2024-03-07T03:13:52;5.00;98.20
4374;DHT22;2201;51.100;6.814;2024-03-07T03:16:19;5.00;98.20
4374;DHT22;2201;51.100;6.814;2024-03-07T03:18:47;5.00;98.20
4374;DHT22;2201;51.100;6.814;2024-03-07T03:21:14;5.00;98.20
4374;DHT22;2201;51.100;6.814;2024-03-07T03:23:41;5.00;98.20
4374;DHT22;2201;51.100;6.814;2024-03-07T03:26:08;4.90;98.20
4374;DHT22;2201;51.100;6.814;2024-03-07T03:28:34;4.90;98.20
4374;DHT22;2201;51.100;6.814;2024-03-07T03:31:02;4.90;98.20
4374;DHT22;2201;51.100;6.814;2024-03-07T03:33:30;4.90;98.20
4374;DHT22;2201;51.100;6.814;2024-03-07T03:35:57;4.90;98.20
4374;DHT22;2201;51.100;6.814;2024-03-07T03:38:24;4.90;98.20
4374;DHT22;2201;51.100;6.814;2024-03-07T03:40:51;4.90;98.20
4374;DHT22;2201;51.100;6.814;2024-03-07T03:43:18;4.90;98.20
4374;DHT22;2201;51.100;6.814;2024-03-07T03:45:45;4.90;98.20
4374;DHT22;2201;51.100;6.814;2024-03-07T03:48:14;4.90;98.20
4374;DHT22;2201;51.100;6.814;2024-03-07T03:50:42;4.90;98.20
4374;DHT22;2201;51.100;6.814;2024-03-07T03:53:09;4.90;98.20
4374;DHT22;2201;51.100;6.814;2024-03-07T03:55:35;4.90;98.20
4374;DHT22;2201;51.100;6.814;2024-03-07T03:58:03;4.80;98.20
4374;DHT22;2201;51.100;6.814;2024-03-07T04:00:31;4.80;98.20
4374;DHT22;2201;51.100;6.814;2024-03-07T04:02:58;4.80;98.20
4374;DHT22;2201;51.100;6.814;2024-03-07T04:05:26;4.80;98.20
4374;DHT22;2201;51.100;6.814;2024-03-07T04:07:53;4.70;98.20
4374;DHT22;2201;51.100;6.814;2024-03-07T04:10:21;4.70;98.20
4374;DHT22;2201;51.100;6.814;2024-03-07T04:12:48;4.70;98.20
4374;DHT22;2201;51.100;6.814;2024-03-07T04:15:16;4.60;98.20
4374;DHT22;2201;51.100;6.814;2024-03-07T04:20:19;4.60;98.20
4374;DHT22;2201;51.100;6.814;2024-03-07T04:22:47;4.50;98.20
4374;DHT22;2201;51.100;6.814;2024-03-07T04:25:16;4.50;98.20
4374;DHT22;2201;51.100;6.814;2024-03-07T04:27:43;4.50;98.20
4374;DHT22;2201;51.100;6.814;2024-03-07T04:30:10;4.50;98.20
4374;DHT22;2201;51.100;6.814;2024-03-07T04:32:37;4.40;98.20
4374;DHT22;2201;51.100;6.814;2024-03-07T04:35:05;4.40;98.20
4374;DHT22;2201;51.100;6.814;2024-03-07T04:37:34;4.40;98.20
4374;DHT22;2201;51.100;6.814;2024-03-07T04:40:05;4.40;98.20
4374;DHT22;2201;51.100;6.814;2024-03-07T04:42:41;4.30;98.20
4374;DHT22;2201;51.100;6.814;2024-03-07T04:45:08;4.30;98.20
4374;DHT22;2201;51.100;6.814;2024-03-07T04:47:38;4.20;98.20
4374;DHT22;2201;51.100;6.814;2024-03-07T04:50:06;4.10;98.20
4374;DHT22;2201;51.100;6.814;2024-03-07T04:52:36;4.10;98.20
4374;DHT22;2201;51.100;6.814;2024-03-07T04:55:05;4.10;98.20
4374;DHT22;2201;51.100;6.814;2024-03-07T04:57:36;4.10;98.20
4374;DHT22;2201;51.100;6.814;2024-03-07T05:00:07;4.10;98.20
4374;DHT22;2201;51.100;6.814;2024-03-07T05:02:46;4.10;98.20
4374;DHT22;2201;51.100;6.814;2024-03-07T05:05:13;4.10;98.20
4374;DHT22;2201;51.100;6.814;2024-03-07T05:07:40;4.10;98.20
4374;DHT22;2201;51.100;6.814;2024-03-07T05:10:08;4.20;98.20
4374;DHT22;2201;51.100;6.814;2024-03-07T05:12:35;4.20;98.20
4374;DHT22;2201;51.100;6.814;2024-03-07T05:15:03;4.20;98.20
4374;DHT22;2201;51.100;6.814;2024-03-07T05:17:31;4.20;98.20
4374;DHT22;2201;51.100;6.814;2024-03-07T05:20:00;4.20;98.20
4374;DHT22;2201;51.100;6.814;2024-03-07T05:22:26;4.20;98.20
4374;DHT22;2201;51.100;6.814;2024-03-07T05:24:55;4.20;98.20
4374;DHT22;2201;51.100;6.814;2024-03-07T05:27:25;4.30;98.20
4374;DHT22;2201;51.100;6.814;2024-03-07T05:30:01;4.30;98.20
4374;DHT22;2201;51.100;6.814;2024-03-07T05:32:28;4.30;98.20
4374;DHT22;2201;51.100;6.814;2024-03-07T05:34:55;4.20;98.20
4374;DHT22;2201;51.100;6.814;2024-03-07T05:37:22;4.30;98.20
4374;DHT22;2201;51.100;6.814;2024-03-07T05:39:49;4.30;98.20
4374;DHT22;2201;51.100;6.814;2024-03-07T05:42:16;4.30;98.20
4374;DHT22;2201;51.100;6.814;2024-03-07T05:44:44;4.30;98.20
4374;DHT22;2201;51.100;6.814;2024-03-07T05:47:11;4.30;98.20
4374;DHT22;2201;51.100;6.814;2024-03-07T05:49:39;4.30;98.20
4374;DHT22;2201;51.100;6.814;2024-03-07T05:52:06;4.30;98.20
4374;DHT22;2201;51.100;6.814;2024-03-07T05:54:33;4.30;98.20
4374;DHT22;2201;51.100;6.814;2024-03-07T05:57:00;4.30;98.20
4374;DHT22;2201;51.100;6.814;2024-03-07T05:59:37;4.30;98.20
4374;DHT22;2201;51.100;6.814;2024-03-07T06:02:06;4.20;98.20
4374;DHT22;2201;51.100;6.814;2024-03-07T06:04:43;4.20;98.20
4374;DHT22;2201;51.100;6.814;2024-03-07T06:07:10;4.20;98.20
4374;DHT22;2201;51.100;6.814;2024-03-07T06:09:37;4.20;98.20
4374;DHT22;2201;51.100;6.814;2024-03-07T06:12:04;4.20;98.20
4374;DHT22;2201;51.100;6.814;2024-03-07T06:14:34;4.20;98.20
4374;DHT22;2201;51.100;6.814;2024-03-07T06:17:01;4.20;98.20
4374;DHT22;2201;51.100;6.814;2024-03-07T06:19:29;4.20;98.20
4374;DHT22;2201;51.100;6.814;2024-03-07T06:21:59;4.20;98.20
4374;DHT22;2201;51.100;6.814;2024-03-07T06:24:26;4.20;98.20
4374;DHT22;2201;51.100;6.814;2024-03-07T06:26:55;4.20;98.20
4374;DHT22;2201;51.100;6.814;2024-03-07T06:29:29;4.20;98.20
4374;DHT22;2201;51.100;6.814;2024-03-07T06:31:56;4.10;98.20
4374;DHT22;2201;51.100;6.814;2024-03-07T06:34:24;4.10;98.20
4374;DHT22;2201;51.100;6.814;2024-03-07T06:36:52;4.10;98.20
4374;DHT22;2201;51.100;6.814;2024-03-07T06:39:20;4.10;98.20
4374;DHT22;2201;51.100;6.814;2024-03-07T06:41:48;4.20;98.20
4374;DHT22;2201;51.100;6.814;2024-03-07T06:44:15;4.20;98.20
4374;DHT22;2201;51.100;6.814;2024-03-07T06:46:42;4.20;98.20
4374;DHT22;2201;51.100;6.814;2024-03-07T06:49:11;4.30;98.20
4374;DHT22;2201;51.100;6.814;2024-03-07T06:51:38;4.30;98.20
4374;DHT22;2201;51.100;6.814;2024-03-07T06:54:06;4.40;98.20
4374;DHT22;2201;51.100;6.814;2024-03-07T06:56:33;4.50;98.20
4374;DHT22;2201;51.100;6.814;2024-03-07T06:59:00;4.50;98.20
4374;DHT22;2201;51.100;6.814;2024-03-07T07:01:29;4.60;98.20
4374;DHT22;2201;51.100;6.814;2024-03-07T07:03:56;4.70;98.20
4374;DHT22;2201;51.100;6.814;2024-03-07T07:06:24;4.80;98.20
4374;DHT22;2201;51.100;6.814;2024-03-07T07:08:51;4.90;98.20
4374;DHT22;2201;51.100;6.814;2024-03-07T07:11:19;5.00;98.20
4374;DHT22;2201;51.100;6.814;2024-03-07T07:13:46;5.10;98.20
4374;DHT22;2201;51.100;6.814;2024-03-07T07:16:13;5.20;98.20
4374;DHT22;2201;51.100;6.814;2024-03-07T07:18:40;5.30;98.20
4374;DHT22;2201;51.100;6.814;2024-03-07T07:21:08;5.40;98.20
4374;DHT22;2201;51.100;6.814;2024-03-07T07:23:38;5.50;98.20
4374;DHT22;2201;51.100;6.814;2024-03-07T07:26:05;5.50;98.20
4374;DHT22;2201;51.100;6.814;2024-03-07T07:28:34;5.60;98.20
4374;DHT22;2201;51.100;6.814;2024-03-07T07:31:05;5.70;98.20
4374;DHT22;2201;51.100;6.814;2024-03-07T07:33:42;5.80;98.20
4374;DHT22;2201;51.100;6.814;2024-03-07T07:39:48;6.00;98.20
4374;DHT22;2201;51.100;6.814;2024-03-07T07:42:54;6.10;98.20
4374;DHT22;2201;51.100;6.814;2024-03-07T07:45:40;6.30;98.20
4374;DHT22;2201;51.100;6.814;2024-03-07T07:48:07;6.40;98.20
4374;DHT22;2201;51.100;6.814;2024-03-07T07:50:34;6.60;98.20
4374;DHT22;2201;51.100;6.814;2024-03-07T07:53:01;6.70;98.20
4374;DHT22;2201;51.100;6.814;2024-03-07T07:55:32;6.70;98.20
4374;DHT22;2201;51.100;6.814;2024-03-07T07:58:00;6.80;98.20
4374;DHT22;2201;51.100;6.814;2024-03-07T08:00:30;6.90;98.20
4374;DHT22;2201;51.100;6.814;2024-03-07T08:02:59;7.00;98.20
4374;DHT22;2201;51.100;6.814;2024-03-07T08:05:27;7.10;98.20
4374;DHT22;2201;51.100;6.814;2024-03-07T08:07:56;7.20;98.20
4374;DHT22;2201;51.100;6.814;2024-03-07T08:10:24;7.30;98.20
4374;DHT22;2201;51.100;6.814;2024-03-07T08:12:54;7.30;98.20
4374;DHT22;2201;51.100;6.814;2024-03-07T08:15:21;7.50;98.20
4374;DHT22;2201;51.100;6.814;2024-03-07T08:17:49;7.60;98.20
4374;DHT22;2201;51.100;6.814;2024-03-07T08:20:20;7.70;98.20
4374;DHT22;2201;51.100;6.814;2024-03-07T08:22:48;7.80;98.20
4374;DHT22;2201;51.100;6.814;2024-03-07T08:25:17;7.90;98.20
4374;DHT22;2201;51.100;6.814;2024-03-07T08:27:45;8.00;98.20
4374;DHT22;2201;51.100;6.814;2024-03-07T08:30:33;8.10;98.20
4374;DHT22;2201;51.100;6.814;2024-03-07T08:36:06;8.20;98.20
4374;DHT22;2201;51.100;6.814;2024-03-07T08:38:35;8.40;98.20
4374;DHT22;2201;51.100;6.814;2024-03-07T08:41:03;8.40;98.20
4374;DHT22;2201;51.100;6.814;2024-03-07T08:43:30;8.50;98.20
4374;DHT22;2201;51.100;6.814;2024-03-07T08:45:57;8.60;98.20
4374;DHT22;2201;51.100;6.814;2024-03-07T08:48:24;8.70;98.20
4374;DHT22;2201;51.100;6.814;2024-03-07T08:50:51;8.70;98.20
4374;DHT22;2201;51.100;6.814;2024-03-07T08:53:19;8.80;98.20
4374;DHT22;2201;51.100;6.814;2024-03-07T08:55:46;8.80;98.20
4374;DHT22;2201;51.100;6.814;2024-03-07T08:58:13;8.90;98.20
4374;DHT22;2201;51.100;6.814;2024-03-07T09:00:40;9.00;98.20
4374;DHT22;2201;51.100;6.814;2024-03-07T09:03:06;9.10;98.20
4374;DHT22;2201;51.100;6.814;2024-03-07T09:05:35;9.10;98.20
4374;DHT22;2201;51.100;6.814;2024-03-07T09:08:03;9.20;98.20
4374;DHT22;2201;51.100;6.814;2024-03-07T09:10:34;9.20;98.20
4374;DHT22;2201;51.100;6.814;2024-03-07T09:13:02;9.40;98.20
4374;DHT22;2201;51.100;6.814;2024-03-07T09:15:28;9.50;98.20
4374;DHT22;2201;51.100;6.814;2024-03-07T09:17:55;9.70;98.20
4374;DHT22;2201;51.100;6.814;2024-03-07T09:20:23;9.80;98.20
4374;DHT22;2201;51.100;6.814;2024-03-07T09:22:50;9.90;98.20
4374;DHT22;2201;51.100;6.814;2024-03-07T09:25:19;10.00;98.20
4374;DHT22;2201;51.100;6.814;2024-03-07T09:27:48;10.10;98.20
4374;DHT22;2201;51.100;6.814;2024-03-07T09:30:15;10.40;98.20
4374;DHT22;2201;51.100;6.814;2024-03-07T09:32:45;10.50;97.20
4374;DHT22;2201;51.100;6.814;2024-03-07T09:35:21;10.50;96.40
4374;DHT22;2201;51.100;6.814;2024-03-07T09:38:01;10.40;96.10
4374;DHT22;2201;51.100;6.814;2024-03-07T09:40:28;10.20;96.30
4374;DHT22;2201;51.100;6.814;2024-03-07T09:42:57;10.30;97.30
4374;DHT22;2201;51.100;6.814;2024-03-07T09:45:29;10.40;97.30
4374;DHT22;2201;51.100;6.814;2024-03-07T09:47:57;10.50;96.30
4374;DHT22;2201;51.100;6.814;2024-03-07T09:50:26;10.40;95.90
4374;DHT22;2201;51.100;6.814;2024-03-07T09:56:18;10.20;96.10
4374;DHT22;2201;51.100;6.814;2024-03-07T09:59:08;10.10;97.90
4374;DHT22;2201;51.100;6.814;2024-03-07T10:01:41;10.10;97.50
4374;DHT22;2201;51.100;6.814;2024-03-07T10:04:13;10.10;97.60
4374;DHT22;2201;51.100;6.814;2024-03-07T10:06:57;10.10;98.20
4374;DHT22;2201;51.100;6.814;2024-03-07T10:09:25;10.00;97.50
4374;DHT22;2201;51.100;6.814;2024-03-07T10:12:18;10.00;97.60
4374;DHT22;2201;51.100;6.814;2024-03-07T10:14:50;10.00;97.70
4374;DHT22;2201;51.100;6.814;2024-03-07T10:17:17;10.10;97.60
4374;DHT22;2201;51.100;6.814;2024-03-07T10:19:46;10.00;97.00
4374;DHT22;2201;51.100;6.814;2024-03-07T10:22:14;10.10;97.40
4374;DHT22;2201;51.100;6.814;2024-03-07T10:24:49;10.00;97.80
4374;DHT22;2201;51.100;6.814;2024-03-07T10:27:18;10.00;98.10
4374;DHT22;2201;51.100;6.814;2024-03-07T10:29:46;10.00;97.60
4374;DHT22;2201;51.100;6.814;2024-03-07T10:32:18;10.10;98.20
4374;DHT22;2201;51.100;6.814;2024-03-07T10:34:50;10.30;97.90
4374;DHT22;2201;51.100;6.814;2024-03-07T10:37:17;10.40;96.90
4374;DHT22;2201;51.100;6.814;2024-03-07T10:39:46;10.30;96.70
4374;DHT22;2201;51.100;6.814;2024-03-07T10:42:15;10.30;97.40
4374;DHT22;2201;51.100;6.814;2024-03-07T10:44:44;10.40;97.10
4374;DHT22;2201;51.100;6.814;2024-03-07T10:47:16;10.40;97.20
4374;DHT22;2201;51.100;6.814;2024-03-07T10:49:57;10.50;97.00
4374;DHT22;2201;51.100;6.814;2024-03-07T10:52:38;10.60;96.40
4374;DHT22;2201;51.100;6.814;2024-03-07T10:55:10;10.90;96.90
4374;DHT22;2201;51.100;6.814;2024-03-07T10:57:49;11.20;95.20
4374;DHT22;2201;51.100;6.814;2024-03-07T11:00:17;11.40;94.60
4374;DHT22;2201;51.100;6.814;2024-03-07T11:03:03;11.70;94.00
4374;DHT22;2201;51.100;6.814;2024-03-07T11:05:33;11.60;92.90
4374;DHT22;2201;51.100;6.814;2024-03-07T11:08:01;11.70;93.50
4374;DHT22;2201;51.100;6.814;2024-03-07T11:10:32;11.70;92.60
4374;DHT22;2201;51.100;6.814;2024-03-07T11:13:00;11.70;94.00
4374;DHT22;2201;51.100;6.814;2024-03-07T11:15:28;11.90;93.30
4374;DHT22;2201;51.100;6.814;2024-03-07T11:17:55;12.00;92.70
4374;DHT22;2201;51.100;6.814;2024-03-07T11:20:26;12.10;92.60
4374;DHT22;2201;51.100;6.814;2024-03-07T11:22:53;12.20;92.90
4374;DHT22;2201;51.100;6.814;2024-03-07T11:25:22;12.30;92.90
4374;DHT22;2201;51.100;6.814;2024-03-07T11:27:52;12.40;91.60
4374;DHT22;2201;51.100;6.814;2024-03-07T11:30:21;12.60;90.90
4374;DHT22;2201;51.100;6.814;2024-03-07T11:32:49;12.60;92.30
4374;DHT22;2201;51.100;6.814;2024-03-07T11:35:19;12.70;92.40
4374;DHT22;2201;51.100;6.814;2024-03-07T11:37:56;12.70;91.30
4374;DHT22;2201;51.100;6.814;2024-03-07T11:40:45;12.60;91.60
4374;DHT22;2201;51.100;6.814;2024-03-07T11:43:14;12.50;92.40
4374;DHT22;2201;51.100;6.814;2024-03-07T11:45:41;12.40;92.00
4374;DHT22;2201;51.100;6.814;2024-03-07T11:48:11;12.20;93.00
4374;DHT22;2201;51.100;6.814;2024-03-07T11:50:39;12.00;93.10
4374;DHT22;2201;51.100;6.814;2024-03-07T11:53:08;11.90;93.50
4374;DHT22;2201;51.100;6.814;2024-03-07T11:55:36;11.90;94.40
4374;DHT22;2201;51.100;6.814;2024-03-07T11:58:10;12.10;95.60
4374;DHT22;2201;51.100;6.814;2024-03-07T12:00:38;12.10;94.10
4374;DHT22;2201;51.100;6.814;2024-03-07T12:03:08;12.10;93.50
4374;DHT22;2201;51.100;6.814;2024-03-07T12:05:39;12.10;93.70
4374;DHT22;2201;51.100;6.814;2024-03-07T12:08:07;12.20;94.40
4374;DHT22;2201;51.100;6.814;2024-03-07T12:10:36;12.20;93.90
4374;DHT22;2201;51.100;6.814;2024-03-07T12:13:06;12.00;92.70
4374;DHT22;2201;51.100;6.814;2024-03-07T12:15:33;11.90;93.90
4374;DHT22;2201;51.100;6.814;2024-03-07T12:18:01;11.90;93.70
4374;DHT22;2201;51.100;6.814;2024-03-07T12:20:35;11.80;94.00
4374;DHT22;2201;51.100;6.814;2024-03-07T12:23:02;11.80;94.80
4374;DHT22;2201;51.100;6.814;2024-03-07T12:25:32;11.80;93.70
4374;DHT22;2201;51.100;6.814;2024-03-07T12:28:01;11.60;94.60
4374;DHT22;2201;51.100;6.814;2024-03-07T12:30:33;11.50;94.80
4374;DHT22;2201;51.100;6.814;2024-03-07T12:33:01;11.50;94.90
4374;DHT22;2201;51.100;6.814;2024-03-07T12:35:30;11.60;95.50
4374;DHT22;2201;51.100;6.814;2024-03-07T12:37:58;11.60;93.90
4374;DHT22;2201;51.100;6.814;2024-03-07T12:40:25;11.60;94.40
4374;DHT22;2201;51.100;6.814;2024-03-07T12:42:56;11.60;95.20
4374;DHT22;2201;51.100;6.814;2024-03-07T12:45:23;11.70;95.00
4374;DHT22;2201;51.100;6.814;2024-03-07T12:47:51;11.70;94.20
4374;DHT22;2201;51.100;6.814;2024-03-07T12:50:20;11.60;94.40
4374;DHT22;2201;51.100;6.814;2024-03-07T12:52:47;11.50;94.80
4374;DHT22;2201;51.100;6.814;2024-03-07T12:55:16;11.40;94.50
4374;DHT22;2201;51.100;6.814;2024-03-07T12:57:47;11.40;95.30
4374;DHT22;2201;51.100;6.814;2024-03-07T13:00:18;11.30;94.50
4374;DHT22;2201;51.100;6.814;2024-03-07T13:02:46;11.30;94.90
4374;DHT22;2201;51.100;6.814;2024-03-07T13:05:13;11.30;94.40
4374;DHT22;2201;51.100;6.814;2024-03-07T13:07:45;11.30;94.40
4374;DHT22;2201;51.100;6.814;2024-03-07T13:10:14;11.20;94.60
4374;DHT22;2201;51.100;6.814;2024-03-07T13:12:42;11.30;95.20
4374;DHT22;2201;51.100;6.814;2024-03-07T13:15:11;11.30;95.30
4374;DHT22;2201;51.100;6.814;2024-03-07T13:17:39;11.30;94.10
4374;DHT22;2201;51.100;6.814;2024-03-07T13:20:09;11.20;94.70
4374;DHT22;2201;51.100;6.814;2024-03-07T13:22:39;11.20;95.70
4374;DHT22;2201;51.100;6.814;2024-03-07T13:25:08;11.20;95.40
4374;DHT22;2201;51.100;6.814;2024-03-07T13:27:40;11.30;94.90
4374;DHT22;2201;51.100;6.814;2024-03-07T13:30:11;11.20;94.60
4374;DHT22;2201;51.100;6.814;2024-03-07T13:32:50;11.20;95.10
4374;DHT22;2201;51.100;6.814;2024-03-07T13:35:19;11.20;95.00
4374;DHT22;2201;51.100;6.814;2024-03-07T13:37:47;11.10;95.20
4374;DHT22;2201;51.100;6.814;2024-03-07T13:40:15;11.10;95.90
4374;DHT22;2201;51.100;6.814;2024-03-07T13:42:52;11.10;95.90
4374;DHT22;2201;51.100;6.814;2024-03-07T13:45:20;11.10;96.80
4374;DHT22;2201;51.100;6.814;2024-03-07T13:47:48;11.10;97.10
4374;DHT22;2201;51.100;6.814;2024-03-07T13:50:18;11.20;96.50
4374;DHT22;2201;51.100;6.814;2024-03-07T13:52:46;11.20;96.30
4374;DHT22;2201;51.100;6.814;2024-03-07T13:55:32;11.20;96.80
4374;DHT22;2201;51.100;6.814;2024-03-07T13:58:04;11.20;95.30
4374;DHT22;2201;51.100;6.814;2024-03-07T14:00:43;11.20;95.90
4374;DHT22;2201;51.100;6.814;2024-03-07T14:03:34;11.20;95.80
4374;DHT22;2201;51.100;6.814;2024-03-07T14:06:10;11.30;95.60
4374;DHT22;2201;51.100;6.814;2024-03-07T14:12:32;11.40;94.20
4374;DHT22;2201;51.100;6.814;2024-03-07T14:15:31;11.40;94.50
4374;DHT22;2201;51.100;6.814;2024-03-07T14:21:44;11.50;93.80
4374;DHT22;2201;51.100;6.814;2024-03-07T14:24:57;11.40;94.10
4374;DHT22;2201;51.100;6.814;2024-03-07T14:27:33;11.20;94.30
4374;DHT22;2201;51.100;6.814;2024-03-07T14:30:17;11.20;94.80
4374;DHT22;2201;51.100;6.814;2024-03-07T14:32:48;11.20;95.50
4374;DHT22;2201;51.100;6.814;2024-03-07T14:35:22;11.20;95.90
4374;DHT22;2201;51.100;6.814;2024-03-07T14:37:55;11.20;94.80
4374;DHT22;2201;51.100;6.814;2024-03-07T14:40:22;11.10;94.80
4374;DHT22;2201;51.100;6.814;2024-03-07T14:42:54;11.10;94.50
4374;DHT22;2201;51.100;6.814;2024-03-07T14:45:25;11.10;94.90
4374;DHT22;2201;51.100;6.814;2024-03-07T14:47:53;11.10;94.40
4374;DHT22;2201;51.100;6.814;2024-03-07T14:50:21;11.10;94.60
4374;DHT22;2201;51.100;6.814;2024-03-07T14:52:49;11.00;94.10
4374;DHT22;2201;51.100;6.814;2024-03-07T14:55:17;11.00;94.50
4374;DHT22;2201;51.100;6.814;2024-03-07T14:57:44;11.00;94.90
4374;DHT22;2201;51.100;6.814;2024-03-07T15:00:12;11.00;94.90
4374;DHT22;2201;51.100;6.814;2024-03-07T15:02:46;11.00;94.80
4374;DHT22;2201;51.100;6.814;2024-03-07T15:05:13;11.00;95.40
4374;DHT22;2201;51.100;6.814;2024-03-07T15:07:40;10.90;94.60
4374;DHT22;2201;51.100;6.814;2024-03-07T15:10:10;10.80;95.40
4374;DHT22;2201;51.100;6.814;2024-03-07T15:12:45;10.80;95.80
4374;DHT22;2201;51.100;6.814;2024-03-07T15:15:12;10.70;95.70
4374;DHT22;2201;51.100;6.814;2024-03-07T15:17:39;10.70;95.20
4374;DHT22;2201;51.100;6.814;2024-03-07T15:20:08;10.60;95.10
4374;DHT22;2201;51.100;6.814;2024-03-07T15:22:40;10.60;95.10
4374;DHT22;2201;51.100;6.814;2024-03-07T15:25:12;10.60;95.40
4374;DHT22;2201;51.100;6.814;2024-03-07T15:27:45;10.60;95.50
4374;DHT22;2201;51.100;6.814;2024-03-07T15:30:15;10.60;95.20
4374;DHT22;2201;51.100;6.814;2024-03-07T15:32:43;10.60;95.00
4374;DHT22;2201;51.100;6.814;2024-03-07T15:35:10;10.60;94.50
4374;DHT22;2201;51.100;6.814;2024-03-07T15:37:43;10.50;94.40
4374;DHT22;2201;51.100;6.814;2024-03-07T15:40:10;10.40;93.30
4374;DHT22;2201;51.100;6.814;2024-03-07T15:42:38;10.30;93.70
4374;DHT22;2201;51.100;6.814;2024-03-07T15:45:08;10.20;93.80
4374;DHT22;2201;51.100;6.814;2024-03-07T15:47:43;10.20;94.70
4374;DHT22;2201;51.100;6.814;2024-03-07T15:50:10;10.10;94.90
4374;DHT22;2201;51.100;6.814;2024-03-07T15:52:38;10.20;94.80
4374;DHT22;2201;51.100;6.814;2024-03-07T15:55:06;10.10;94.50
4374;DHT22;2201;51.100;6.814;2024-03-07T15:57:41;10.10;94.80
4374;DHT22;2201;51.100;6.814;2024-03-07T16:00:12;10.10;95.40
4374;DHT22;2201;51.100;6.814;2024-03-07T16:02:49;10.00;94.50
4374;DHT22;2201;51.100;6.814;2024-03-07T16:05:16;10.00;95.00
4374;DHT22;2201;51.100;6.814;2024-03-07T16:07:43;10.00;95.30
4374;DHT22;2201;51.100;6.814;2024-03-07T16:10:10;10.00;95.90
4374;DHT22;2201;51.100;6.814;2024-03-07T16:12:39;10.00;95.60
4374;DHT22;2201;51.100;6.814;2024-03-07T16:15:07;9.90;95.90
4374;DHT22;2201;51.100;6.814;2024-03-07T16:17:36;9.90;95.60
4374;DHT22;2201;51.100;6.814;2024-03-07T16:20:12;9.90;95.90
4374;DHT22;2201;51.100;6.814;2024-03-07T16:22:40;9.90;96.00
4374;DHT22;2201;51.100;6.814;2024-03-07T16:25:08;9.80;95.80
4374;DHT22;2201;51.100;6.814;2024-03-07T16:27:36;9.70;95.70
4374;DHT22;2201;51.100;6.814;2024-03-07T16:30:04;9.70;96.00
4374;DHT22;2201;51.100;6.814;2024-03-07T16:32:33;9.70;95.80
4374;DHT22;2201;51.100;6.814;2024-03-07T16:35:02;9.60;95.70
4374;DHT22;2201;51.100;6.814;2024-03-07T16:37:36;9.60;95.50
4374;DHT22;2201;51.100;6.814;2024-03-07T16:40:05;9.60;95.70
4374;DHT22;2201;51.100;6.814;2024-03-07T16:45:36;9.50;95.40
4374;DHT22;2201;51.100;6.814;2024-03-07T16:48:11;9.40;95.90
4374;DHT22;2201;51.100;6.814;2024-03-07T16:50:39;9.40;95.80